Time;durP1;ratioP1;P1;durP2;ratioP2;P2;SDS_P1;SDS_P2;PMS_P1;PMS_P2;Temp;Humidity;BMP_temperature;BMP_pressure;BME280_temperature;BME280_humidity;BME280_pressure;Samples;Min_cycle;Max_cycle;Signal;HPM_P1;HPM_P2
2023/11/29 00:00:47;;;;;;;8.20;3.93;;;-2.10;99.90;;;-1.43;100.00;97270.56;5018967;28;20473;-77
2023/11/29 00:03:16;;;;;;;5.40;4.03;;;-2.10;99.90;;;-1.43;100.00;97273.13;5015643;28;20491;-78
2023/11/29 00:05:44;;;;;;;9.60;5.23;;;-2.20;99.90;;;-1.47;100.00;97271.75;5015073;28;20457;-77
2023/11/29 00:08:14;;;;;;;5.87;4.33;;;-2.20;99.90;;;-1.50;100.00;97275.41;5015419;28;20513;-78
2023/11/29 00:10:42;;;;;;;4.33;3.60;;;-2.30;99.90;;;-1.54;100.00;97269.72;5016038;28;20501;-78
2023/11/29 00:13:11;;;;;;;5.40;4.23;;;-2.40;99.90;;;-1.55;100.00;97262.97;5016479;28;20880;-76
2023/11/29 00:15:40;;;;;;;5.90;4.67;;;-2.40;99.90;;;-1.62;100.00;97271.31;5013687;28;20481;-78
2023/11/29 00:18:09;;;;;;;6.23;4.40;;;-2.50;99.90;;;-1.61;100.00;97273.75;5016199;28;20853;-77
2023/11/29 00:20:38;;;;;;;4.63;3.83;;;-2.50;99.90;;;-1.65;100.00;97274.94;5017076;28;20469;-77
2023/11/29 00:23:07;;;;;;;4.97;3.77;;;-2.50;99.90;;;-1.63;100.00;97267.13;5017914;28;20526;-78
2023/11/29 00:25:34;;;;;;;11.20;4.03;;;-2.40;99.90;;;-1.61;100.00;97267.81;5016912;28;20985;-77
2023/11/29 00:28:03;;;;;;;9.03;4.83;;;-2.40;99.90;;;-1.65;100.00;97262.13;5016403;28;20458;-78
2023/11/29 00:30:31;;;;;;;5.40;4.20;;;-2.50;99.90;;;-1.65;100.00;97257.00;5016547;28;20500;-77
2023/11/29 00:33:00;;;;;;;5.80;4.00;;;-2.50;99.90;;;-1.68;100.00;97257.28;5015684;28;20493;-77
2023/11/29 00:35:30;;;;;;;7.03;4.13;;;-2.50;99.90;;;-1.65;100.00;97246.75;5014146;28;20458;-77
2023/11/29 00:37:59;;;;;;;5.53;4.10;;;-2.50;99.90;;;-1.66;100.00;97240.00;5017461;28;20470;-77
2023/11/29 00:40:27;;;;;;;5.70;4.30;;;-2.50;99.90;;;-1.68;100.00;97247.03;5015316;28;21022;-77
2023/11/29 00:42:56;;;;;;;5.83;4.20;;;-2.50;99.90;;;-1.66;100.00;97252.00;5015519;28;20470;-77
2023/11/29 00:45:36;;;;;;;4.63;4.00;;;-2.50;99.90;;;-1.71;100.00;97241.34;5019327;28;21535;-78
2023/11/29 00:48:04;;;;;;;8.97;4.47;;;-2.60;99.90;;;-1.76;100.00;97248.59;5017179;28;20465;-78
2023/11/29 00:50:37;;;;;;;5.63;4.60;;;-2.60;99.90;;;-1.79;100.00;97254.00;5016291;28;20524;-77
2023/11/29 00:53:05;;;;;;;5.67;3.93;;;-2.60;99.90;;;-1.78;100.00;97241.06;5015323;28;21008;-78
2023/11/29 00:55:34;;;;;;;6.07;4.07;;;-2.60;99.90;;;-1.75;100.00;97240.81;5014316;28;20458;-77
2023/11/29 00:58:03;;;;;;;5.07;4.00;;;-2.60;99.90;;;-1.78;100.00;97241.06;5015465;28;20464;-77
2023/11/29 01:00:32;;;;;;;5.97;3.80;;;-2.60;99.90;;;-1.78;100.00;97241.06;5014803;28;20477;-78
2023/11/29 01:03:00;;;;;;;6.63;4.70;;;-2.50;99.90;;;-1.78;100.00;97235.13;5014769;28;20521;-78
2023/11/29 01:05:29;;;;;;;5.90;4.70;;;-2.60;99.90;;;-1.76;100.00;97233.25;5016158;28;20553;-77
2023/11/29 01:07:59;;;;;;;6.83;4.70;;;-2.60;99.90;;;-1.76;100.00;97234.06;5015894;28;20498;-78
2023/11/29 01:10:28;;;;;;;5.80;4.40;;;-2.50;99.90;;;-1.76;100.00;97228.94;5015747;28;20537;-78
2023/11/29 01:12:58;;;;;;;5.90;4.20;;;-2.50;99.90;;;-1.77;100.00;97227.28;5016275;28;20818;-77
2023/11/29 01:15:26;;;;;;;7.30;4.30;;;-2.40;99.90;;;-1.76;100.00;97231.50;5016482;28;20494;-78
2023/11/29 01:17:57;;;;;;;5.07;4.27;;;-2.40;99.90;;;-1.72;100.00;97235.41;5017534;28;20620;-78
2023/11/29 01:20:26;;;;;;;5.27;3.97;;;-2.40;99.90;;;-1.72;100.00;97230.28;5015316;28;21635;-78
2023/11/29 01:22:54;;;;;;;5.90;4.10;;;-2.40;99.90;;;-1.70;100.00;97228.41;5015868;28;22213;-78
2023/11/29 01:25:24;;;;;;;4.37;3.83;;;-2.30;99.90;;;-1.68;100.00;97230.84;5013603;28;20469;-78
2023/11/29 01:27:53;;;;;;;8.47;4.37;;;-2.30;99.90;;;-1.70;100.00;97232.75;5015957;28;20480;-78
2023/11/29 01:30:22;;;;;;;4.70;4.30;;;-2.40;99.90;;;-1.66;100.00;97232.31;5019216;28;20502;-77
2023/11/29 01:32:50;;;;;;;7.20;4.57;;;-2.30;99.90;;;-1.66;100.00;97229.75;5018223;28;20468;-77
2023/11/29 01:35:19;;;;;;;5.60;4.17;;;-2.30;99.90;;;-1.66;100.00;97219.50;5017687;28;21076;-78
2023/11/29 01:37:48;;;;;;;6.43;4.60;;;-2.20;99.90;;;-1.63;100.00;97218.44;5019123;28;20462;-77
2023/11/29 01:40:17;;;;;;;6.10;4.03;;;-2.30;99.90;;;-1.61;100.00;97221.69;5019253;28;20844;-78
2023/11/29 01:42:47;;;;;;;8.07;4.63;;;-2.20;99.90;;;-1.59;100.00;97220.59;5019053;28;21189;-77
2023/11/29 01:45:15;;;;;;;10.37;4.67;;;-2.30;99.90;;;-1.57;100.00;97216.19;5017717;28;20999;-77
2023/11/29 01:47:44;;;;;;;10.23;6.00;;;-2.30;99.90;;;-1.52;100.00;97215.75;5019468;28;20969;-77
2023/11/29 01:50:17;;;;;;;14.03;5.60;;;-2.20;99.90;;;-1.52;100.00;97206.31;5017042;28;20478;-77
2023/11/29 01:52:46;;;;;;;8.37;4.87;;;-2.10;99.90;;;-1.47;100.00;97211.06;5018731;28;20480;-77
2023/11/29 01:55:20;;;;;;;6.73;4.97;;;-2.10;99.90;;;-1.44;100.00;97192.84;5020571;28;20457;-77
2023/11/29 01:57:50;;;;;;;5.40;4.57;;;-2.10;99.90;;;-1.40;100.00;97198.50;5018435;28;20512;-78
2023/11/29 02:00:20;;;;;;;6.53;4.37;;;-2.10;99.90;;;-1.40;100.00;97196.75;5019401;28;20470;-78
2023/11/29 02:02:49;;;;;;;9.00;5.10;;;-2.00;99.90;;;-1.39;100.00;97192.44;5018502;28;20957;-78
2023/11/29 02:05:18;;;;;;;9.43;5.43;;;-2.00;99.90;;;-1.43;100.00;97194.47;5019285;28;20493;-78
2023/11/29 02:07:47;;;;;;;6.97;5.07;;;-1.90;99.90;;;-1.40;100.00;97183.94;5017853;28;20469;-78
2023/11/29 02:10:16;;;;;;;5.60;4.43;;;-2.00;99.90;;;-1.40;100.00;97183.94;5017897;28;20470;-77
2023/11/29 02:12:45;;;;;;;7.40;4.73;;;-2.00;99.90;;;-1.43;100.00;97173.97;5017385;28;21174;-77
2023/11/29 02:15:15;;;;;;;9.03;4.90;;;-2.10;99.90;;;-1.42;100.00;97169.66;5017886;28;20543;-78
2023/11/29 02:17:43;;;;;;;8.87;5.23;;;-2.10;99.90;;;-1.43;100.00;97158.59;5017679;28;20467;-77
2023/11/29 02:20:16;;;;;;;9.10;4.90;;;-2.10;99.90;;;-1.44;100.00;97162.09;5016545;28;21169;-78
2023/11/29 02:22:58;;;;;;;8.17;5.10;;;-2.20;99.90;;;-1.43;100.00;97155.22;5016774;28;21219;-77
2023/11/29 02:25:27;;;;;;;7.40;5.10;;;-2.20;99.90;;;-1.42;100.00;97149.94;5018789;28;20512;-78
2023/11/29 02:27:56;;;;;;;7.77;5.30;;;-2.20;99.90;;;-1.45;100.00;97150.19;5018823;28;20466;-78
2023/11/29 02:30:24;;;;;;;8.97;5.37;;;-2.20;99.90;;;-1.49;100.00;97143.72;5017018;28;20465;-77
2023/11/29 02:32:53;;;;;;;6.73;4.77;;;-2.30;99.90;;;-1.52;100.00;97141.44;5015522;28;20478;-78
2023/11/29 02:35:21;;;;;;;9.90;5.13;;;-2.40;99.90;;;-1.56;100.00;97143.44;5015506;28;21073;-78
2023/11/29 02:37:51;;;;;;;7.87;4.90;;;-2.30;99.90;;;-1.58;100.00;97140.22;5016705;28;20478;-77
2023/11/29 02:40:19;;;;;;;10.60;5.57;;;-2.40;99.90;;;-1.54;100.00;97139.03;5016606;28;20462;-77
2023/11/29 02:42:49;;;;;;;6.73;4.47;;;-2.40;99.90;;;-1.50;100.00;97138.75;5017526;28;20493;-78
2023/11/29 02:45:18;;;;;;;7.63;4.60;;;-2.40;99.90;;;-1.53;100.00;97127.81;5018785;28;21065;-77
2023/11/29 02:47:46;;;;;;;5.70;4.47;;;-2.30;99.90;;;-1.56;100.00;97125.50;5018252;28;20580;-76
2023/11/29 02:50:17;;;;;;;6.27;5.10;;;-2.40;99.90;;;-1.61;100.00;97114.06;5018207;28;20566;-77
2023/11/29 02:52:48;;;;;;;7.70;4.83;;;-2.50;99.90;;;-1.56;100.00;97114.44;5018330;28;20497;-77
2023/11/29 02:55:16;;;;;;;6.23;4.30;;;-2.40;99.90;;;-1.55;100.00;97109.22;5020076;28;20463;-77
2023/11/29 02:57:45;;;;;;;6.80;4.60;;;-2.40;99.90;;;-1.61;100.00;97114.88;5017324;28;20462;-77
2023/11/29 03:00:15;;;;;;;5.60;4.10;;;-2.40;99.90;;;-1.66;100.00;97106.78;5018028;28;20454;-77
2023/11/29 03:02:44;;;;;;;6.63;4.80;;;-2.50;99.90;;;-1.64;100.00;97106.66;5018548;28;20469;-78
2023/11/29 03:05:13;;;;;;;6.23;5.17;;;-2.50;99.90;;;-1.62;100.00;97102.19;5015849;28;20509;-77
2023/11/29 03:07:41;;;;;;;7.17;4.37;;;-2.50;99.90;;;-1.64;100.00;97102.34;5017828;28;20912;-78
2023/11/29 03:10:10;;;;;;;8.73;5.33;;;-2.40;99.90;;;-1.58;100.00;97098.41;5017927;28;20471;-78
2023/11/29 03:12:38;;;;;;;6.00;4.27;;;-2.30;99.90;;;-1.56;100.00;97081.94;5016571;28;20495;-78
2023/11/29 03:15:09;;;;;;;8.17;5.37;;;-2.20;99.90;;;-1.53;100.00;97081.66;5016451;28;20538;-77
2023/11/29 03:17:38;;;;;;;10.80;5.87;;;-2.30;99.90;;;-1.52;100.00;97075.63;5017084;28;20467;-77
2023/11/29 03:20:09;;;;;;;9.70;6.27;;;-2.20;99.90;;;-1.52;100.00;97070.47;5017368;28;20924;-77
2023/11/29 03:22:37;;;;;;;8.10;4.77;;;-2.20;99.90;;;-1.45;100.00;97067.38;5017620;28;20558;-78
2023/11/29 03:25:07;;;;;;;7.53;4.33;;;-2.20;99.90;;;-1.47;100.00;97070.09;5016614;28;20470;-78
2023/11/29 03:27:35;;;;;;;9.43;5.30;;;-2.20;99.90;;;-1.43;100.00;97070.63;5015817;28;20463;-76
2023/11/29 03:30:05;;;;;;;6.80;4.70;;;-2.20;99.90;;;-1.39;100.00;97066.84;5016755;28;20462;-77
2023/11/29 03:32:33;;;;;;;5.70;4.43;;;-2.20;99.90;;;-1.37;100.00;97065.75;5016529;28;20499;-78
2023/11/29 03:35:04;;;;;;;6.20;4.50;;;-2.20;99.90;;;-1.35;100.00;97068.97;5017527;28;20480;-78
2023/11/29 03:37:32;;;;;;;8.70;5.40;;;-2.20;99.90;;;-1.36;100.00;97066.56;5017423;28;20470;-78
2023/11/29 03:40:01;;;;;;;8.13;5.10;;;-2.20;99.90;;;-1.33;100.00;97061.16;5016671;28;20458;-78
2023/11/29 03:42:29;;;;;;;7.70;5.43;;;-2.10;99.90;;;-1.27;100.00;97058.03;5018583;28;20473;-77
2023/11/29 03:44:57;;;;;;;8.03;5.53;;;-2.00;99.90;;;-1.23;100.00;97056.81;5017820;28;20835;-76
2023/11/29 03:47:26;;;;;;;8.00;5.60;;;-2.00;99.90;;;-1.18;100.00;97057.22;5018305;28;21118;-78
2023/11/29 03:49:54;;;;;;;6.70;4.40;;;-2.00;99.90;;;-1.14;100.00;97050.84;5014720;28;20494;-77
2023/11/29 03:52:25;;;;;;;7.40;5.07;;;-1.90;99.90;;;-1.14;100.00;97040.59;5018575;28;20497;-78
2023/11/29 03:54:53;;;;;;;7.23;5.53;;;-1.80;99.90;;;-1.12;100.00;97034.41;5017471;28;20467;-77
2023/11/29 03:57:21;;;;;;;8.60;5.03;;;-1.90;99.90;;;-1.06;100.00;97038.97;5016040;28;20466;-77
2023/11/29 03:59:50;;;;;;;10.60;5.70;;;-1.80;99.90;;;-1.02;100.00;97039.50;5014673;28;20490;-76
2023/11/29 04:02:19;;;;;;;10.13;5.37;;;-1.80;99.90;;;-0.97;100.00;97044.22;5014802;28;20593;-77
2023/11/29 04:04:47;;;;;;;11.67;6.30;;;-1.70;99.90;;;-0.93;100.00;97038.63;5014501;28;20493;-80
2023/11/29 04:07:16;;;;;;;7.70;5.40;;;-1.60;99.90;;;-0.93;100.00;97042.97;5018454;28;20469;-78
2023/11/29 04:09:46;;;;;;;12.00;6.10;;;-1.60;99.90;;;-0.91;100.00;97041.88;5015885;28;21006;-77
2023/11/29 04:12:19;;;;;;;10.70;5.80;;;-1.60;99.90;;;-0.87;100.00;97037.28;5014346;28;21201;-78
2023/11/29 04:14:47;;;;;;;7.90;5.13;;;-1.40;99.90;;;-0.82;100.00;97037.66;5014505;28;20463;-78
2023/11/29 04:17:16;;;;;;;13.77;6.43;;;-1.50;99.90;;;-0.84;100.00;97022.41;5013943;28;20904;-78
2023/11/29 04:19:44;;;;;;;10.77;5.73;;;-1.50;99.90;;;-0.88;100.00;97031.34;5013389;28;20472;-78
2023/11/29 04:22:13;;;;;;;9.77;5.30;;;-1.50;99.90;;;-0.89;100.00;97027.16;5015071;28;21119;-76
2023/11/29 04:24:41;;;;;;;10.77;7.70;;;-1.50;99.90;;;-0.80;100.00;97023.72;5015831;28;20961;-78
2023/11/29 04:27:11;;;;;;;10.17;6.70;;;-1.40;99.90;;;-0.75;100.00;97013.84;5014693;28;20820;-78
2023/11/29 04:29:39;;;;;;;7.77;5.60;;;-1.40;99.90;;;-0.73;100.00;97008.59;5017021;28;20496;-78
2023/11/29 04:32:08;;;;;;;11.17;6.30;;;-1.30;99.90;;;-0.72;100.00;97016.13;5017428;28;20491;-79
2023/11/29 04:34:36;;;;;;;9.83;5.80;;;-1.30;99.90;;;-0.68;100.00;97017.47;5016667;28;20530;-79
2023/11/29 04:37:14;;;;;;;10.27;6.50;;;-1.30;99.90;;;-0.68;100.00;97004.63;5014890;28;20477;-79
2023/11/29 04:39:44;;;;;;;12.30;5.20;;;-1.20;99.90;;;-0.60;100.00;97012.44;5014667;28;20476;-78
2023/11/29 04:46:20;;;;;;;12.80;6.03;;;-1.10;99.90;;;-0.48;100.00;97001.94;5013981;28;20528;-76
2023/11/29 04:48:48;;;;;;;19.53;8.50;;;-1.10;99.90;;;-0.41;100.00;97008.13;5017397;28;20524;-79
2023/11/29 04:51:17;;;;;;;9.13;5.90;;;-1.10;99.90;;;-0.35;100.00;96999.88;5017810;28;20491;-78
2023/11/29 04:53:48;;;;;;;13.53;7.50;;;-1.00;99.90;;;-0.31;100.00;96993.50;5014695;28;20498;-78
2023/11/29 04:56:16;;;;;;;12.80;7.10;;;-1.00;99.90;;;-0.31;100.00;96989.13;5012580;28;22311;-78
2023/11/29 04:58:46;;;;;;;14.53;7.73;;;-0.90;99.90;;;-0.27;100.00;96985.34;5017106;28;20470;-79
2023/11/29 05:01:15;;;;;;;10.37;6.10;;;-1.00;99.90;;;-0.20;100.00;96985.56;5016314;28;20468;-78
2023/11/29 05:03:44;;;;;;;12.53;7.20;;;-0.90;99.90;;;-0.19;100.00;96982.03;5016572;28;20468;-78
2023/11/29 05:06:13;;;;;;;11.80;6.77;;;-0.90;99.90;;;-0.15;100.00;96981.59;5015941;28;20487;-76
2023/11/29 05:08:41;;;;;;;12.20;7.27;;;-0.80;99.90;;;-0.12;100.00;96980.50;5010977;28;20979;-80
2023/11/29 05:11:10;;;;;;;9.47;6.50;;;-0.80;99.90;;;-0.09;100.00;96975.88;5013589;28;20961;-79
2023/11/29 05:13:38;;;;;;;20.13;7.10;;;-0.70;99.90;;;-0.08;100.00;96980.06;5017182;28;20756;-78
2023/11/29 05:16:08;;;;;;;12.67;7.30;;;-0.70;99.90;;;-0.04;100.00;96976.25;5015672;28;20965;-79
2023/11/29 05:18:37;;;;;;;13.37;7.40;;;-0.70;99.90;;;-0.04;100.00;96980.59;5012841;28;20555;-76
2023/11/29 05:21:08;;;;;;;13.30;7.90;;;-0.70;99.90;;;-0.04;100.00;96968.56;5012240;28;20548;-78
2023/11/29 05:23:36;;;;;;;13.57;7.70;;;-0.70;99.90;;;0.00;100.00;96971.63;5011450;28;20922;-80
2023/11/29 05:26:05;;;;;;;14.73;7.80;;;-0.70;99.90;;;0.02;100.00;96963.75;5013486;28;20203;-77
2023/11/29 05:28:35;;;;;;;15.07;7.57;;;-0.60;99.90;;;0.05;100.00;96958.31;5017115;28;20523;-77
2023/11/29 05:31:04;;;;;;;12.00;7.03;;;-0.60;99.90;;;0.09;100.00;96960.44;5017369;28;20518;-77
2023/11/29 05:33:33;;;;;;;14.50;8.20;;;-0.50;99.90;;;0.10;100.00;96954.38;5017314;28;21090;-77
2023/11/29 05:36:01;;;;;;;10.00;6.57;;;-0.50;99.90;;;0.12;100.00;96960.16;5017261;28;20498;-77
2023/11/29 05:38:31;;;;;;;10.97;6.97;;;-0.40;99.90;;;0.13;100.00;96972.06;5018417;28;20464;-77
2023/11/29 05:41:00;;;;;;;13.30;7.00;;;-0.40;99.90;;;0.15;100.00;96970.13;5016741;28;21044;-77
2023/11/29 05:43:29;;;;;;;10.90;6.07;;;-0.30;99.90;;;0.17;100.00;96960.53;5016780;28;20470;-77
2023/11/29 05:45:57;;;;;;;12.57;7.13;;;-0.20;99.90;;;0.23;100.00;96965.06;5015932;28;20461;-77
2023/11/29 05:48:26;;;;;;;13.10;5.70;;;-0.30;99.90;;;0.27;100.00;96963.00;5015532;28;20493;-77
2023/11/29 05:50:54;;;;;;;10.80;6.50;;;-0.30;99.90;;;0.27;100.00;96960.44;5016251;28;20469;-77
2023/11/29 05:53:23;;;;;;;10.83;7.13;;;-0.20;99.90;;;0.29;100.00;96956.75;5013929;28;20502;-77
2023/11/29 05:55:53;;;;;;;14.80;8.00;;;-0.20;99.90;;;0.33;100.00;96949.53;5015716;28;20461;-77
2023/11/29 05:58:22;;;;;;;10.23;6.63;;;-0.20;99.90;;;0.36;100.00;96947.47;5014513;28;20468;-78
2023/11/29 06:00:51;;;;;;;10.40;7.20;;;-0.20;99.90;;;0.38;100.00;96939.63;5015799;28;20457;-77
2023/11/29 06:03:21;;;;;;;11.73;7.40;;;0.00;99.90;;;0.40;100.00;96948.78;5016582;28;20831;-77
2023/11/29 06:05:50;;;;;;;14.80;7.83;;;-0.20;99.90;;;0.43;100.00;96958.78;5017278;28;20511;-78
2023/11/29 06:08:18;;;;;;;14.97;8.03;;;-0.10;99.90;;;0.47;100.00;96957.50;5016591;28;20563;-76
2023/11/29 06:10:47;;;;;;;13.13;8.13;;;-0.10;99.90;;;0.52;100.00;96961.41;5015171;28;20969;-78
2023/11/29 06:13:20;;;;;;;13.47;8.03;;;0.00;99.90;;;0.52;100.00;96957.84;5017556;28;20505;-77
2023/11/29 06:15:49;;;;;;;13.03;7.83;;;0.00;99.90;;;0.55;100.00;96961.09;5019676;28;20458;-77
2023/11/29 06:18:18;;;;;;;14.50;7.60;;;0.10;99.90;;;0.55;100.00;96961.09;5020632;28;20461;-77
2023/11/29 06:20:46;;;;;;;12.30;7.70;;;0.10;99.90;;;0.56;100.00;96957.53;5018253;28;20466;-77
2023/11/29 06:23:16;;;;;;;12.60;7.97;;;0.10;99.90;;;0.58;100.00;96960.78;5022339;28;20463;-77
2023/11/29 06:25:44;;;;;;;13.63;7.43;;;0.00;99.90;;;0.62;100.00;96964.69;5019093;28;20475;-77
2023/11/29 06:28:13;;;;;;;18.83;8.97;;;0.10;99.90;;;0.65;100.00;96951.50;5020494;28;20473;-77
2023/11/29 06:30:42;;;;;;;11.53;7.50;;;0.10;99.90;;;0.69;100.00;96947.69;5020704;28;20470;-77
2023/11/29 06:33:11;;;;;;;20.00;8.53;;;0.20;99.90;;;0.69;100.00;96953.63;5017883;28;20991;-77
2023/11/29 06:35:39;;;;;;;12.17;7.37;;;0.20;99.90;;;0.70;100.00;96962.13;5019291;28;20461;-78
2023/11/29 06:38:08;;;;;;;14.43;8.40;;;0.10;99.90;;;0.74;100.00;96960.88;5020966;28;20478;-77
2023/11/29 06:40:37;;;;;;;13.80;8.43;;;0.10;99.90;;;0.76;100.00;96943.53;5020425;28;20466;-78
2023/11/29 06:43:14;;;;;;;17.63;9.30;;;0.10;99.90;;;0.77;100.00;96943.38;5018371;28;20473;-77
2023/11/29 06:45:44;;;;;;;19.13;8.73;;;0.20;99.90;;;0.79;100.00;96940.66;5017551;28;20528;-78
2023/11/29 06:48:15;;;;;;;14.03;7.70;;;0.30;99.90;;;0.79;100.00;96940.66;5018504;28;21015;-77
2023/11/29 06:50:43;;;;;;;14.50;7.83;;;0.30;99.90;;;0.77;100.00;96947.69;5017353;28;20471;-78
2023/11/29 06:53:12;;;;;;;16.73;8.67;;;0.40;99.90;;;0.79;100.00;96946.59;5017646;28;21012;-77
2023/11/29 06:55:41;;;;;;;11.20;7.83;;;0.20;99.90;;;0.81;100.00;96939.53;5017724;28;20828;-77
2023/11/29 06:58:10;;;;;;;15.03;8.40;;;0.30;99.90;;;0.87;100.00;96945.81;5017827;28;20472;-77
2023/11/29 07:00:48;;;;;;;14.67;7.90;;;0.40;99.90;;;0.86;100.00;96939.06;5018160;28;20462;-77
2023/11/29 07:03:17;;;;;;;14.53;8.40;;;0.40;99.90;;;0.88;100.00;96939.72;5016427;28;20502;-77
2023/11/29 07:05:45;;;;;;;36.53;9.30;;;0.40;99.90;;;0.89;100.00;96934.44;5018303;28;20499;-77
2023/11/29 07:08:14;;;;;;;15.63;9.17;;;0.40;99.90;;;0.93;100.00;96940.06;5017736;28;20474;-77
2023/11/29 07:10:43;;;;;;;14.50;8.43;;;0.50;99.90;;;0.92;100.00;96946.19;5019827;28;20470;-77
2023/11/29 07:13:12;;;;;;;15.63;8.93;;;0.50;99.90;;;0.92;100.00;96941.03;5018302;28;20498;-77
2023/11/29 07:15:40;;;;;;;15.27;8.70;;;0.60;99.90;;;0.95;100.00;96938.16;5017542;28;20474;-77
2023/11/29 07:18:10;;;;;;;13.50;7.67;;;0.60;99.90;;;0.96;100.00;96925.13;5017203;28;20548;-77
2023/11/29 07:20:40;;;;;;;10.37;6.90;;;0.60;99.90;;;1.00;100.00;96933.34;5017485;28;20503;-78
2023/11/29 07:23:14;;;;;;;15.33;6.80;;;0.60;99.90;;;0.96;100.00;96932.84;5017050;28;20452;-77
2023/11/29 07:25:42;;;;;;;17.40;7.23;;;0.60;99.90;;;0.98;100.00;96935.25;5017505;28;20466;-77
2023/11/29 07:28:11;;;;;;;12.47;7.77;;;0.70;99.90;;;1.05;100.00;96932.88;5017162;28;20463;-78
2023/11/29 07:30:40;;;;;;;15.40;7.43;;;0.70;99.90;;;1.05;100.00;96927.72;5018197;28;20491;-77
2023/11/29 07:33:10;;;;;;;12.80;7.63;;;0.80;99.90;;;1.07;100.00;96936.09;5018411;28;20463;-77
2023/11/29 07:35:39;;;;;;;12.50;7.60;;;0.70;99.90;;;1.11;100.00;96942.56;5018679;28;20461;-77
2023/11/29 07:38:08;;;;;;;19.70;7.60;;;0.60;99.90;;;1.16;100.00;96935.97;5016771;28;20505;-77
2023/11/29 07:40:37;;;;;;;12.50;7.50;;;0.70;99.90;;;1.19;100.00;96935.66;5015677;28;20483;-77
2023/11/29 07:43:06;;;;;;;10.80;6.10;;;0.70;99.90;;;1.22;100.00;96932.78;5016468;28;20467;-77
2023/11/29 07:45:34;;;;;;;9.57;5.70;;;0.70;99.90;;;1.21;100.00;96944.06;5016572;28;20834;-77
2023/11/29 07:48:03;;;;;;;10.93;6.33;;;0.70;99.90;;;1.24;100.00;96938.59;5017834;28;20485;-78
2023/11/29 07:50:33;;;;;;;11.13;6.73;;;0.70;99.90;;;1.27;100.00;96937.47;5016138;28;20494;-77
2023/11/29 07:53:02;;;;;;;8.67;5.80;;;0.70;99.90;;;1.28;100.00;96945.03;5016284;28;20460;-77
2023/11/29 07:55:31;;;;;;;9.23;5.70;;;0.80;99.90;;;1.28;100.00;96947.63;5014880;28;20509;-77
2023/11/29 07:57:59;;;;;;;7.70;5.00;;;0.80;99.90;;;1.32;100.00;96941.16;5016390;28;20470;-77
2023/11/29 08:00:28;;;;;;;8.37;5.90;;;0.90;99.90;;;1.34;100.00;96949.56;5018094;28;20458;-77
2023/11/29 08:02:56;;;;;;;10.07;5.90;;;0.90;99.90;;;1.36;100.00;96941.66;5015508;28;20862;-78
2023/11/29 08:05:27;;;;;;;11.30;6.67;;;0.90;99.90;;;1.36;100.00;96939.88;5016481;28;20473;-77
2023/11/29 08:07:59;;;;;;;9.13;5.80;;;1.00;99.90;;;1.40;100.00;96933.47;5017721;28;20463;-77
2023/11/29 08:10:29;;;;;;;7.60;4.80;;;1.00;99.90;;;1.41;100.00;96934.28;5016064;28;20547;-77
2023/11/29 08:12:58;;;;;;;6.93;5.00;;;1.00;99.90;;;1.39;100.00;96937.00;5017743;28;20458;-77
2023/11/29 08:15:28;;;;;;;10.17;5.87;;;1.00;99.90;;;1.43;100.00;96943.44;5017033;28;20580;-77
2023/11/29 08:17:56;;;;;;;8.73;5.43;;;1.00;99.90;;;1.46;100.00;96948.28;5017893;28;20831;-78
2023/11/29 08:20:26;;;;;;;7.73;4.73;;;1.10;99.90;;;1.48;100.00;96941.22;5018350;28;21040;-77
2023/11/29 08:22:55;;;;;;;7.33;4.40;;;1.00;99.90;;;1.51;100.00;96935.75;5017720;28;20522;-79
2023/11/29 08:25:26;;;;;;;6.43;4.47;;;1.10;99.90;;;1.56;100.00;96939.63;5017843;28;20469;-77
2023/11/29 08:27:55;;;;;;;7.03;4.40;;;1.20;99.90;;;1.59;100.00;96934.16;5018720;28;20541;-79
2023/11/29 08:30:23;;;;;;;9.73;6.33;;;1.20;99.90;;;1.61;100.00;96939.94;5018235;28;20472;-77
2023/11/29 08:32:52;;;;;;;11.10;5.97;;;1.20;99.90;;;1.63;100.00;96940.59;5019593;28;20874;-77
2023/11/29 08:35:21;;;;;;;8.87;5.67;;;1.20;99.90;;;1.69;100.00;96942.53;5017986;28;20587;-78
2023/11/29 08:37:50;;;;;;;9.30;5.90;;;1.20;99.90;;;1.69;100.00;96942.53;5017955;28;20460;-78
2023/11/29 08:40:19;;;;;;;8.70;5.80;;;1.30;99.90;;;1.72;100.00;96947.38;5015985;28;20531;-77
2023/11/29 08:42:48;;;;;;;11.43;6.50;;;1.20;99.90;;;1.77;100.00;96950.28;5017231;28;20489;-77
2023/11/29 08:45:17;;;;;;;8.43;6.23;;;1.30;99.90;;;1.82;100.00;96938.53;5018735;28;20472;-77
2023/11/29 08:47:47;;;;;;;13.20;6.50;;;1.30;99.90;;;1.81;100.00;96941.25;5018029;28;20479;-77
2023/11/29 08:50:16;;;;;;;10.27;6.23;;;1.50;99.90;;;1.86;100.00;96944.16;5015941;28;20461;-77
2023/11/29 08:52:46;;;;;;;12.90;6.97;;;1.50;99.90;;;1.91;100.00;96949.63;5017527;28;20524;-77
2023/11/29 08:55:15;;;;;;;11.10;6.77;;;1.50;99.90;;;1.91;100.00;96945.28;5014599;28;20517;-77
2023/11/29 08:57:43;;;;;;;13.50;7.50;;;1.50;99.90;;;1.93;100.00;96943.38;5018030;28;20474;-78
2023/11/29 09:00:14;;;;;;;8.23;5.63;;;1.40;99.90;;;1.99;100.00;96950.47;5016583;28;20466;-77
2023/11/29 09:02:43;;;;;;;10.40;6.87;;;1.50;99.90;;;2.01;100.00;96943.34;5014728;28;20478;-77
2023/11/29 09:05:17;;;;;;;9.30;5.87;;;1.60;99.90;;;2.09;100.00;96941.75;5016732;28;20971;-77
2023/11/29 09:07:47;;;;;;;8.80;5.73;;;1.60;99.90;;;2.08;100.00;96935.00;5018394;28;20470;-77
2023/11/29 09:10:15;;;;;;;6.97;5.47;;;1.70;99.90;;;2.07;100.00;96939.34;5016633;28;20595;-77
2023/11/29 09:12:45;;;;;;;8.70;5.40;;;1.70;99.90;;;2.08;100.00;96940.16;5015975;28;20495;-77
2023/11/29 09:15:15;;;;;;;7.13;5.63;;;1.70;99.90;;;2.08;100.00;96947.91;5016771;28;20486;-77
2023/11/29 09:17:45;;;;;;;10.07;6.10;;;1.50;99.90;;;2.02;100.00;96939.00;5017288;28;20832;-78
2023/11/29 09:20:15;;;;;;;5.80;5.00;;;1.50;99.90;;;2.04;100.00;96942.25;5017227;28;20535;-77
2023/11/29 09:22:43;;;;;;;11.30;5.83;;;1.70;99.90;;;2.09;100.00;96937.41;5017744;28;20471;-77
2023/11/29 09:25:12;;;;;;;7.67;5.70;;;1.70;99.90;;;2.11;100.00;96932.91;5017407;28;20829;-77
2023/11/29 09:27:40;;;;;;;8.00;5.00;;;1.70;99.90;;;2.10;100.00;96933.88;5019042;28;20493;-77
2023/11/29 09:30:11;;;;;;;5.90;4.70;;;1.70;99.90;;;2.13;100.00;96941.28;5018010;28;20477;-77
2023/11/29 09:32:41;;;;;;;5.87;4.70;;;1.70;99.90;;;2.07;100.00;96930.81;5016525;28;20470;-77
2023/11/29 09:35:09;;;;;;;6.50;4.33;;;1.60;99.90;;;2.06;100.00;96949.81;5017884;28;20479;-77
2023/11/29 09:37:38;;;;;;;5.40;4.67;;;1.60;99.90;;;2.09;100.00;96942.56;5015985;28;20459;-78
2023/11/29 09:40:09;;;;;;;6.60;4.50;;;1.60;99.90;;;2.12;100.00;96933.72;5016693;28;20467;-77
2023/11/29 09:42:38;;;;;;;7.33;4.30;;;1.70;99.90;;;2.10;100.00;96931.28;5017592;28;20488;-77
2023/11/29 09:45:11;;;;;;;7.03;4.17;;;1.60;99.90;;;2.10;100.00;96933.88;5015360;28;20470;-78
2023/11/29 09:47:41;;;;;;;5.97;4.10;;;1.70;99.90;;;2.11;100.00;96927.75;5015542;28;20489;-78
2023/11/29 09:50:11;;;;;;;8.17;4.30;;;1.70;99.90;;;2.14;100.00;96930.00;5019143;28;20538;-77
2023/11/29 09:52:41;;;;;;;6.47;4.50;;;1.80;99.90;;;2.15;100.00;96929.03;5020652;28;20633;-77
2023/11/29 09:55:10;;;;;;;7.27;5.07;;;1.80;99.90;;;2.14;100.00;96934.34;5019207;28;20486;-78
2023/11/29 09:57:38;;;;;;;8.77;4.30;;;1.80;99.90;;;2.15;100.00;96933.38;5019000;28;20455;-77
2023/11/29 10:00:12;;;;;;;6.50;4.97;;;1.70;99.90;;;2.18;100.00;96938.22;5019044;28;20467;-77
2023/11/29 10:02:42;;;;;;;6.43;5.03;;;1.60;99.90;;;2.14;100.00;96937.75;5018666;28;20481;-77
2023/11/29 10:05:13;;;;;;;8.73;4.90;;;1.70;99.90;;;2.20;100.00;96931.13;5017734;28;20546;-77
2023/11/29 10:07:42;;;;;;;9.97;5.93;;;1.80;99.90;;;2.23;100.00;96935.94;5017542;28;20466;-77
2023/11/29 10:10:11;;;;;;;12.03;5.70;;;1.90;99.90;;;2.22;100.00;96934.34;5018434;28;20465;-77
2023/11/29 10:12:42;;;;;;;11.47;6.07;;;1.70;99.90;;;2.27;100.00;96924.34;5018409;28;20463;-77
2023/11/29 10:15:13;;;;;;;9.43;5.73;;;1.90;99.90;;;2.32;100.00;96929.81;5018398;28;20525;-77
2023/11/29 10:17:45;;;;;;;10.70;6.07;;;2.00;99.90;;;2.34;100.00;96933.84;5018689;28;20465;-77
2023/11/29 10:20:14;;;;;;;7.60;5.60;;;1.90;99.90;;;2.35;100.00;96921.75;5018636;28;20466;-77
2023/11/29 10:22:43;;;;;;;11.47;6.40;;;1.90;99.90;;;2.40;100.00;96924.63;5017792;28;20554;-78
2023/11/29 10:25:20;;;;;;;10.60;6.23;;;1.90;99.90;;;2.35;100.00;96930.31;5018903;28;20462;-78
2023/11/29 10:27:49;;;;;;;11.87;7.53;;;1.90;99.90;;;2.35;100.00;96925.16;5016717;28;21088;-77